Time;durP1;ratioP1;P1;durP2;ratioP2;P2;SDS_P1;SDS_P2;PMS_P1;PMS_P2;Temp;Humidity;BMP_temperature;BMP_pressure;BME280_temperature;BME280_humidity;BME280_pressure;Samples;Min_cycle;Max_cycle;Signal;HPM_P1;HPM_P2
2024/01/23 00:00:15;;;;;;;;;;;8.00;99.90;;;;;;4947497;28;19914;-67
2024/01/23 00:02:43;;;;;;;;;;;8.00;99.90;;;;;;4949921;28;19985;-67
2024/01/23 00:05:08;;;;;;;;;;;8.00;99.90;;;;;;4948650;28;19922;-67
2024/01/23 00:07:33;;;;;;;;;;;8.00;99.90;;;;;;4948400;28;20624;-67
2024/01/23 00:09:59;;;;;;;;;;;8.00;99.90;;;;;;4950012;28;19910;-67
2024/01/23 00:12:27;;;;;;;;;;;8.10;99.90;;;;;;4946766;28;20452;-67
2024/01/23 00:14:57;;;;;;;;;;;8.10;99.90;;;;;;4949943;28;19929;-67
2024/01/23 00:17:22;;;;;;;;;;;8.10;99.90;;;;;;4944282;28;20077;-67
2024/01/23 00:19:48;;;;;;;;;;;8.10;99.90;;;;;;4945313;28;20282;-67
2024/01/23 00:22:13;;;;;;;;;;;8.10;99.90;;;;;;4949479;29;19911;-67
2024/01/23 00:24:39;;;;;;;;;;;8.10;99.90;;;;;;4948783;28;20408;-67
2024/01/23 00:27:07;;;;;;;;;;;8.10;99.90;;;;;;4948703;28;19914;-67
2024/01/23 00:29:34;;;;;;;;;;;8.10;99.90;;;;;;4948485;28;19929;-67
2024/01/23 00:32:03;;;;;;;;;;;8.10;99.90;;;;;;4948847;28;20290;-67
2024/01/23 00:34:28;;;;;;;;;;;8.10;99.90;;;;;;4945327;28;19911;-67
2024/01/23 00:36:54;;;;;;;;;;;8.10;99.90;;;;;;4948834;28;19919;-67
2024/01/23 00:39:19;;;;;;;;;;;8.20;99.90;;;;;;4948866;28;20009;-68
2024/01/23 00:41:47;;;;;;;;;;;8.20;99.90;;;;;;4947860;28;19915;-67
2024/01/23 00:44:13;;;;;;;;;;;8.20;99.90;;;;;;4942368;28;19918;-67
2024/01/23 00:46:41;;;;;;;;;;;8.20;99.90;;;;;;4954445;23;19927;-68
2024/01/23 00:49:09;;;;;;;;;;;8.20;99.90;;;;;;4941587;28;19921;-68
2024/01/23 00:51:35;;;;;;;;;;;8.20;99.90;;;;;;4960989;28;20053;-67
2024/01/23 00:54:02;;;;;;;;;;;8.20;99.90;;;;;;4948052;28;20013;-67
2024/01/23 00:56:30;;;;;;;;;;;8.20;99.90;;;;;;4946174;28;20329;-67
2024/01/23 00:58:55;;;;;;;;;;;8.20;99.90;;;;;;4948699;28;19957;-67
2024/01/23 01:01:21;;;;;;;;;;;8.20;99.90;;;;;;4963894;28;19953;-67
2024/01/23 01:03:46;;;;;;;;;;;8.20;99.90;;;;;;4948030;28;20775;-67
2024/01/23 01:06:12;;;;;;;;;;;8.20;99.90;;;;;;4949500;28;19919;-67
2024/01/23 01:08:40;;;;;;;;;;;8.20;99.90;;;;;;4945825;28;20009;-67
2024/01/23 01:11:06;;;;;;;;;;;8.10;99.90;;;;;;4948097;28;20463;-67
2024/01/23 01:13:32;;;;;;;;;;;8.10;99.90;;;;;;4948343;28;19914;-67
2024/01/23 01:15:57;;;;;;;;;;;8.10;99.90;;;;;;4953884;28;19936;-68
2024/01/23 01:18:23;;;;;;;;;;;8.10;99.90;;;;;;4948663;28;20513;-67
2024/01/23 01:20:48;;;;;;;;;;;8.10;99.90;;;;;;4947766;28;19956;-67
2024/01/23 01:23:15;;;;;;;;;;;8.10;99.90;;;;;;4948804;28;19914;-67
2024/01/23 01:25:45;;;;;;;;;;;8.20;99.90;;;;;;4949389;28;19911;-68
2024/01/23 01:28:11;;;;;;;;;;;8.20;99.90;;;;;;4947438;29;19930;-67
2024/01/23 01:30:39;;;;;;;;;;;8.20;99.90;;;;;;4948165;28;20366;-67
2024/01/23 01:33:09;;;;;;;;;;;8.10;99.90;;;;;;4949879;28;19914;-68
2024/01/23 01:35:38;;;;;;;;;;;8.10;99.90;;;;;;4950117;28;19921;-67
2024/01/23 01:38:03;;;;;;;;;;;8.10;99.90;;;;;;4942784;28;19919;-67
2024/01/23 01:40:31;;;;;;;;;;;8.10;99.90;;;;;;4951110;28;19911;-68
2024/01/23 01:42:58;;;;;;;;;;;8.10;99.90;;;;;;4947487;28;19918;-67
2024/01/23 01:45:24;;;;;;;;;;;8.20;99.90;;;;;;4947175;28;19922;-68
2024/01/23 01:47:50;;;;;;;;;;;8.20;99.90;;;;;;4947768;28;19922;-67
2024/01/23 01:50:18;;;;;;;;;;;8.20;99.90;;;;;;4948097;28;19914;-68
2024/01/23 01:52:46;;;;;;;;;;;8.20;99.90;;;;;;4947170;28;19918;-67
2024/01/23 01:55:12;;;;;;;;;;;8.20;99.90;;;;;;4949270;28;20016;-68
2024/01/23 01:57:40;;;;;;;;;;;8.20;99.90;;;;;;4952708;28;20496;-67
2024/01/23 02:00:13;;;;;;;;;;;8.20;99.90;;;;;;4947674;28;19914;-69
2024/01/23 02:02:41;;;;;;;;;;;8.20;99.90;;;;;;4947885;28;19915;-67
2024/01/23 02:05:09;;;;;;;;;;;8.20;99.90;;;;;;4947793;28;19922;-67
2024/01/23 02:07:34;;;;;;;;;;;8.20;99.90;;;;;;4949012;28;19960;-68
2024/01/23 02:10:00;;;;;;;;;;;8.10;99.90;;;;;;4947888;28;20357;-68
2024/01/23 02:12:25;;;;;;;;;;;8.10;99.90;;;;;;4946811;28;19926;-68
2024/01/23 02:14:51;;;;;;;;;;;8.10;99.90;;;;;;4947495;28;19945;-68
2024/01/23 02:17:16;;;;;;;;;;;8.10;99.90;;;;;;4951303;28;20515;-68
2024/01/23 02:19:44;;;;;;;;;;;8.10;99.90;;;;;;4963999;28;19966;-68
2024/01/23 02:22:12;;;;;;;;;;;8.20;99.90;;;;;;4948023;28;19914;-68
2024/01/23 02:24:39;;;;;;;;;;;8.10;99.90;;;;;;4947504;28;20155;-67
2024/01/23 02:27:05;;;;;;;;;;;8.10;99.90;;;;;;4951498;28;19962;-67
2024/01/23 02:29:30;;;;;;;;;;;8.10;99.90;;;;;;4947441;28;19914;-67
2024/01/23 02:31:58;;;;;;;;;;;8.10;99.90;;;;;;4947740;28;19919;-67
2024/01/23 02:34:26;;;;;;;;;;;8.10;99.90;;;;;;4947578;28;20648;-67
2024/01/23 02:36:51;;;;;;;;;;;8.00;99.90;;;;;;4948072;28;19926;-68
2024/01/23 02:39:17;;;;;;;;;;;8.00;99.90;;;;;;4948008;28;20286;-67
2024/01/23 02:41:42;;;;;;;;;;;8.00;99.90;;;;;;4948426;28;19918;-67
2024/01/23 02:44:10;;;;;;;;;;;8.00;99.90;;;;;;4947389;28;20301;-67
2024/01/23 02:46:38;;;;;;;;;;;8.00;99.90;;;;;;4950967;28;19920;-67
2024/01/23 02:49:03;;;;;;;;;;;8.00;99.90;;;;;;4973235;28;19907;-67
2024/01/23 02:51:29;;;;;;;;;;;8.00;99.90;;;;;;4950895;28;19973;-67
2024/01/23 02:53:54;;;;;;;;;;;8.00;99.90;;;;;;4950005;28;19921;-67
2024/01/23 02:56:22;;;;;;;;;;;8.00;99.90;;;;;;4954883;28;19918;-68
2024/01/23 02:58:50;;;;;;;;;;;8.00;99.90;;;;;;4945598;28;19911;-67
2024/01/23 03:01:15;;;;;;;;;;;8.00;99.90;;;;;;4942668;28;20294;-67
2024/01/23 03:03:43;;;;;;;;;;;8.00;99.90;;;;;;4947325;28;19918;-67
2024/01/23 03:06:11;;;;;;;;;;;8.00;99.90;;;;;;4944891;28;20318;-67
2024/01/23 03:08:39;;;;;;;;;;;8.00;99.90;;;;;;4947012;28;20349;-67
2024/01/23 03:11:07;;;;;;;;;;;7.90;99.90;;;;;;4944540;28;19982;-67
2024/01/23 03:13:35;;;;;;;;;;;7.90;99.90;;;;;;4945270;28;19917;-67
2024/01/23 03:16:03;;;;;;;;;;;7.80;99.90;;;;;;4950314;28;19913;-67
2024/01/23 03:18:29;;;;;;;;;;;7.80;99.90;;;;;;4941904;28;20297;-67
2024/01/23 03:20:56;;;;;;;;;;;7.80;99.90;;;;;;4942780;28;20064;-67
2024/01/23 03:23:24;;;;;;;;;;;7.80;99.90;;;;;;4945808;28;19922;-67
2024/01/23 03:25:50;;;;;;;;;;;7.80;99.90;;;;;;4949964;28;20315;-67
2024/01/23 03:28:18;;;;;;;;;;;7.80;99.90;;;;;;4940746;28;19911;-67
2024/01/23 03:30:43;;;;;;;;;;;7.80;99.90;;;;;;4947748;28;19929;-67
2024/01/23 03:33:11;;;;;;;;;;;7.90;99.90;;;;;;4944755;28;19922;-68
2024/01/23 03:35:39;;;;;;;;;;;7.80;99.90;;;;;;4941720;28;19915;-67
2024/01/23 03:38:05;;;;;;;;;;;7.80;99.90;;;;;;4948659;28;19973;-67
2024/01/23 03:40:30;;;;;;;;;;;7.80;99.90;;;;;;4946033;28;19911;-67
2024/01/23 03:43:01;;;;;;;;;;;7.80;99.90;;;;;;4943511;28;20522;-67
2024/01/23 03:45:26;;;;;;;;;;;7.80;99.90;;;;;;4940957;28;19992;-67
2024/01/23 03:47:54;;;;;;;;;;;7.70;99.90;;;;;;4951048;28;20409;-67
2024/01/23 03:50:20;;;;;;;;;;;7.70;99.90;;;;;;4940203;28;20437;-67
2024/01/23 03:52:47;;;;;;;;;;;7.70;99.90;;;;;;4943461;28;19946;-67
2024/01/23 03:55:13;;;;;;;;;;;7.70;99.90;;;;;;4943692;28;19915;-67
2024/01/23 03:57:39;;;;;;;;;;;7.70;99.90;;;;;;4948332;28;19918;-67
2024/01/23 04:00:07;;;;;;;;;;;7.70;99.90;;;;;;4942979;28;19915;-67
2024/01/23 04:02:37;;;;;;;;;;;7.70;99.90;;;;;;4949311;28;19925;-67
2024/01/23 04:05:06;;;;;;;;;;;7.70;99.90;;;;;;4945937;28;20400;-67
2024/01/23 04:07:33;;;;;;;;;;;7.70;99.90;;;;;;4952297;28;20075;-68
2024/01/23 04:10:03;;;;;;;;;;;7.70;99.90;;;;;;4947310;28;19938;-67
2024/01/23 04:12:29;;;;;;;;;;;7.70;99.90;;;;;;4949984;28;19964;-67
2024/01/23 04:14:59;;;;;;;;;;;7.80;99.90;;;;;;4949342;28;19953;-67
2024/01/23 04:17:25;;;;;;;;;;;7.80;99.90;;;;;;4952486;28;19918;-68
2024/01/23 04:19:50;;;;;;;;;;;7.80;99.90;;;;;;4948719;28;20001;-67
2024/01/23 04:22:16;;;;;;;;;;;7.80;99.90;;;;;;4949388;28;20112;-67
2024/01/23 04:24:43;;;;;;;;;;;7.80;99.90;;;;;;4949208;28;20332;-67
2024/01/23 04:27:09;;;;;;;;;;;7.90;99.90;;;;;;4949689;28;19914;-67
2024/01/23 04:29:34;;;;;;;;;;;7.80;99.90;;;;;;4963936;28;19922;-67
2024/01/23 04:32:00;;;;;;;;;;;7.80;99.90;;;;;;4947996;28;19929;-67
2024/01/23 04:34:25;;;;;;;;;;;7.80;99.90;;;;;;4948195;28;20460;-67
2024/01/23 04:36:51;;;;;;;;;;;7.80;99.90;;;;;;4946407;28;19978;-67
2024/01/23 04:39:18;;;;;;;;;;;7.80;99.90;;;;;;4948615;28;19950;-67
2024/01/23 04:41:44;;;;;;;;;;;7.80;99.90;;;;;;4943011;28;19977;-67
2024/01/23 04:44:12;;;;;;;;;;;7.80;99.90;;;;;;4945259;28;20032;-67
2024/01/23 04:46:37;;;;;;;;;;;7.80;99.90;;;;;;4950228;28;20289;-67
2024/01/23 04:49:05;;;;;;;;;;;7.80;99.90;;;;;;4948952;28;19946;-67
2024/01/23 04:51:30;;;;;;;;;;;7.80;99.90;;;;;;4949062;28;19936;-67
2024/01/23 04:53:56;;;;;;;;;;;7.80;99.90;;;;;;4948657;28;20266;-67
2024/01/23 04:56:21;;;;;;;;;;;7.90;99.90;;;;;;4949770;28;20582;-68
2024/01/23 04:58:48;;;;;;;;;;;7.80;99.90;;;;;;4948244;28;19914;-67
2024/01/23 05:01:17;;;;;;;;;;;7.80;99.90;;;;;;4949037;28;19914;-70
2024/01/23 05:03:43;;;;;;;;;;;7.80;99.90;;;;;;4950686;28;19917;-67
2024/01/23 05:06:08;;;;;;;;;;;7.80;99.90;;;;;;4950012;28;19926;-67
2024/01/23 05:08:34;;;;;;;;;;;7.80;99.90;;;;;;4947926;28;19982;-67
2024/01/23 05:10:59;;;;;;;;;;;7.80;99.90;;;;;;4940566;28;20404;-67
2024/01/23 05:13:25;;;;;;;;;;;7.80;99.90;;;;;;4938180;28;19960;-67
2024/01/23 05:15:50;;;;;;;;;;;7.80;99.90;;;;;;4948213;28;20086;-67
2024/01/23 05:18:15;;;;;;;;;;;7.80;99.90;;;;;;4948848;28;20505;-67
2024/01/23 05:20:41;;;;;;;;;;;7.80;99.90;;;;;;4942644;28;19918;-67
2024/01/23 05:23:06;;;;;;;;;;;7.80;99.90;;;;;;4948422;28;19919;-67
2024/01/23 05:25:32;;;;;;;;;;;7.80;99.90;;;;;;4949158;28;19910;-67
2024/01/23 05:27:58;;;;;;;;;;;7.80;99.90;;;;;;4949581;28;20281;-67
2024/01/23 05:30:23;;;;;;;;;;;7.80;99.90;;;;;;4947252;28;19925;-67
2024/01/23 05:32:49;;;;;;;;;;;7.80;99.90;;;;;;4948271;28;19925;-67
2024/01/23 05:35:17;;;;;;;;;;;7.80;99.90;;;;;;4947911;28;19915;-67
2024/01/23 05:37:45;;;;;;;;;;;7.80;99.90;;;;;;4949916;28;20140;-67
2024/01/23 05:40:11;;;;;;;;;;;7.80;99.90;;;;;;4948160;28;19906;-67
2024/01/23 05:42:39;;;;;;;;;;;7.80;99.90;;;;;;4947875;28;20001;-67
2024/01/23 05:45:05;;;;;;;;;;;7.80;99.90;;;;;;4947608;28;19921;-67
2024/01/23 05:47:30;;;;;;;;;;;7.80;99.90;;;;;;4945288;28;19926;-67
2024/01/23 05:49:56;;;;;;;;;;;7.80;99.90;;;;;;4950459;28;19936;-67
2024/01/23 05:52:21;;;;;;;;;;;7.80;99.90;;;;;;4947737;28;19916;-67
2024/01/23 05:54:47;;;;;;;;;;;7.80;99.90;;;;;;4948205;28;19925;-67
2024/01/23 05:57:13;;;;;;;;;;;7.80;99.90;;;;;;4949123;28;20017;-67
2024/01/23 05:59:41;;;;;;;;;;;7.80;99.90;;;;;;4945309;28;20412;-67
2024/01/23 06:02:09;;;;;;;;;;;7.80;99.90;;;;;;4955238;28;19915;-67
2024/01/23 06:04:35;;;;;;;;;;;7.80;99.90;;;;;;4924762;28;19997;-68
2024/01/23 06:07:00;;;;;;;;;;;7.70;99.90;;;;;;4931487;29;20038;-67
2024/01/23 06:09:26;;;;;;;;;;;7.80;99.90;;;;;;4944022;28;20608;-67
2024/01/23 06:11:52;;;;;;;;;;;7.80;99.90;;;;;;4932718;28;19919;-68
2024/01/23 06:14:17;;;;;;;;;;;7.80;99.90;;;;;;4928085;28;19922;-67
2024/01/23 06:16:43;;;;;;;;;;;7.80;99.90;;;;;;4936983;28;19917;-67
2024/01/23 06:19:11;;;;;;;;;;;7.70;99.90;;;;;;4920965;29;19919;-67
2024/01/23 06:21:37;;;;;;;;;;;7.80;99.90;;;;;;4940423;28;19918;-70
2024/01/23 06:24:03;;;;;;;;;;;7.80;99.90;;;;;;4934311;28;20385;-67
2024/01/23 06:26:32;;;;;;;;;;;7.80;99.90;;;;;;4925336;28;19919;-67
2024/01/23 06:29:01;;;;;;;;;;;7.80;99.90;;;;;;4929996;28;19919;-67
2024/01/23 06:31:27;;;;;;;;;;;7.80;99.90;;;;;;4924013;29;19915;-67
2024/01/23 06:33:53;;;;;;;;;;;7.80;99.90;;;;;;4924134;28;19923;-67
2024/01/23 06:36:21;;;;;;;;;;;7.80;99.90;;;;;;4923484;28;19930;-67
2024/01/23 06:38:46;;;;;;;;;;;7.80;99.90;;;;;;4924234;28;20510;-67
2024/01/23 06:41:12;;;;;;;;;;;7.80;99.90;;;;;;4922070;28;20167;-67
2024/01/23 06:43:37;;;;;;;;;;;7.80;99.90;;;;;;4925559;28;19914;-67
2024/01/23 06:46:05;;;;;;;;;;;7.80;99.90;;;;;;4959967;23;19957;-67
2024/01/23 06:48:33;;;;;;;;;;;7.80;99.90;;;;;;4961869;28;20424;-67
2024/01/23 06:50:59;;;;;;;;;;;7.80;99.90;;;;;;4966525;28;20360;-67
2024/01/23 06:53:24;;;;;;;;;;;7.80;99.90;;;;;;4967604;28;19914;-67
2024/01/23 06:55:52;;;;;;;;;;;7.80;99.90;;;;;;4968274;28;19914;-67
2024/01/23 06:58:17;;;;;;;;;;;7.80;99.90;;;;;;4962957;28;19953;-67
2024/01/23 07:00:45;;;;;;;;;;;7.90;99.90;;;;;;4966819;28;20371;-67
2024/01/23 07:03:11;;;;;;;;;;;7.80;99.90;;;;;;4967959;28;19918;-67
2024/01/23 07:05:38;;;;;;;;;;;7.80;99.90;;;;;;4965428;28;19914;-68
2024/01/23 07:08:06;;;;;;;;;;;7.80;99.90;;;;;;4965466;28;19914;-67
2024/01/23 07:10:32;;;;;;;;;;;7.80;99.90;;;;;;4968933;28;20445;-68
2024/01/23 07:12:59;;;;;;;;;;;7.70;99.90;;;;;;4968560;28;19918;-67
2024/01/23 07:15:25;;;;;;;;;;;7.70;99.90;;;;;;4969077;28;19910;-67
2024/01/23 07:17:53;;;;;;;;;;;7.70;99.90;;;;;;4969573;28;19918;-67
2024/01/23 07:20:19;;;;;;;;;;;7.70;99.90;;;;;;4973342;28;20310;-70
2024/01/23 07:22:44;;;;;;;;;;;7.60;99.90;;;;;;4968482;28;19952;-67
2024/01/23 07:25:13;;;;;;;;;;;7.60;99.90;;;;;;4988812;28;19905;-67
2024/01/23 07:27:38;;;;;;;;;;;7.70;99.90;;;;;;4987310;28;19958;-67
2024/01/23 07:30:04;;;;;;;;;;;7.60;99.90;;;;;;4970063;28;19914;-68
2024/01/23 07:32:30;;;;;;;;;;;7.60;99.90;;;;;;4964735;28;19989;-67
2024/01/23 07:34:55;;;;;;;;;;;7.60;99.90;;;;;;4962107;28;19921;-67
2024/01/23 07:37:21;;;;;;;;;;;7.60;99.90;;;;;;4962401;28;19914;-68
2024/01/23 07:39:49;;;;;;;;;;;7.70;99.90;;;;;;4972770;28;19922;-67
2024/01/23 07:42:14;;;;;;;;;;;7.60;99.90;;;;;;4964418;28;19944;-67
2024/01/23 07:44:42;;;;;;;;;;;7.70;99.90;;;;;;4976016;28;19922;-67
2024/01/23 07:47:10;;;;;;;;;;;7.70;99.90;;;;;;4973222;28;20294;-67
2024/01/23 07:49:35;;;;;;;;;;;7.70;99.90;;;;;;4964812;28;20012;-67
2024/01/23 07:52:01;;;;;;;;;;;7.70;99.90;;;;;;4967208;28;20188;-67
2024/01/23 07:54:32;;;;;;;;;;;7.70;99.90;;;;;;4966543;28;19918;-67
2024/01/23 07:56:58;;;;;;;;;;;7.80;99.90;;;;;;4968892;28;19918;-67
2024/01/23 07:59:25;;;;;;;;;;;7.70;99.90;;;;;;4973594;28;19925;-68
2024/01/23 08:01:51;;;;;;;;;;;7.70;99.90;;;;;;4965833;28;19922;-68
2024/01/23 08:04:16;;;;;;;;;;;7.80;99.90;;;;;;4963623;28;20434;-68
2024/01/23 08:06:42;;;;;;;;;;;7.70;99.90;;;;;;4966833;28;19922;-68
2024/01/23 08:09:07;;;;;;;;;;;7.80;99.90;;;;;;4961974;28;20329;-68
2024/01/23 08:11:35;;;;;;;;;;;7.80;99.90;;;;;;4966225;28;20085;-68
2024/01/23 08:14:01;;;;;;;;;;;7.80;99.90;;;;;;4967637;28;19945;-67
2024/01/23 08:16:30;;;;;;;;;;;7.70;99.90;;;;;;4957883;28;20543;-67
2024/01/23 08:18:56;;;;;;;;;;;7.80;99.90;;;;;;4983930;28;19920;-67
2024/01/23 08:21:23;;;;;;;;;;;7.80;99.90;;;;;;4971934;28;19914;-68
2024/01/23 08:23:49;;;;;;;;;;;7.80;99.90;;;;;;4975822;28;19913;-67
2024/01/23 08:26:17;;;;;;;;;;;7.80;99.90;;;;;;4975245;28;20254;-68
2024/01/23 08:28:42;;;;;;;;;;;7.80;99.90;;;;;;4967298;28;19917;-68
2024/01/23 08:31:08;;;;;;;;;;;7.80;99.90;;;;;;4963541;28;20352;-68
2024/01/23 08:33:34;;;;;;;;;;;7.80;99.90;;;;;;4962996;28;20009;-68
2024/01/23 08:36:01;;;;;;;;;;;7.80;99.90;;;;;;4965684;28;19918;-68
2024/01/23 08:38:29;;;;;;;;;;;7.80;99.90;;;;;;4966650;28;19969;-68
2024/01/23 08:40:56;;;;;;;;;;;7.80;99.90;;;;;;4966765;28;19922;-68
2024/01/23 08:43:22;;;;;;;;;;;7.90;99.90;;;;;;4965049;28;19914;-68
2024/01/23 08:45:50;;;;;;;;;;;7.90;99.90;;;;;;4966575;28;19926;-68
2024/01/23 08:48:19;;;;;;;;;;;7.90;99.90;;;;;;4965966;28;20393;-68
2024/01/23 08:50:46;;;;;;;;;;;7.90;99.90;;;;;;4958957;28;19921;-68
2024/01/23 08:53:12;;;;;;;;;;;7.90;99.90;;;;;;4964884;28;20407;-68
2024/01/23 08:55:37;;;;;;;;;;;7.90;99.90;;;;;;4961648;28;19918;-68
2024/01/23 08:58:08;;;;;;;;;;;7.90;99.90;;;;;;4969464;28;19937;-68
2024/01/23 09:00:33;;;;;;;;;;;7.80;99.90;;;;;;4964912;28;20001;-68
2024/01/23 09:02:59;;;;;;;;;;;7.90;99.90;;;;;;4970220;28;20005;-68
2024/01/23 09:05:27;;;;;;;;;;;7.90;99.90;;;;;;4966325;28;19914;-68
2024/01/23 09:07:55;;;;;;;;;;;7.90;99.90;;;;;;4960247;28;19914;-68
2024/01/23 09:10:20;;;;;;;;;;;7.90;99.90;;;;;;4960516;28;20368;-68
2024/01/23 09:12:46;;;;;;;;;;;7.90;99.90;;;;;;4962965;28;19920;-68
2024/01/23 09:15:11;;;;;;;;;;;7.90;99.90;;;;;;4965638;28;19914;-68
2024/01/23 09:17:36;;;;;;;;;;;7.90;99.90;;;;;;4961048;28;19926;-68
2024/01/23 09:20:04;;;;;;;;;;;7.90;99.90;;;;;;4966386;28;20008;-68
2024/01/23 09:22:30;;;;;;;;;;;7.90;99.90;;;;;;4966235;28;20088;-68
2024/01/23 09:24:55;;;;;;;;;;;7.90;99.90;;;;;;4963428;28;20708;-68
2024/01/23 09:27:21;;;;;;;;;;;7.90;99.90;;;;;;4983488;28;20289;-68
2024/01/23 09:29:46;;;;;;;;;;;7.90;99.90;;;;;;4973746;28;19914;-68
2024/01/23 09:32:12;;;;;;;;;;;7.90;99.90;;;;;;4965525;28;20686;-68
2024/01/23 09:34:40;;;;;;;;;;;8.00;99.90;;;;;;4964625;28;19918;-68
2024/01/23 09:37:05;;;;;;;;;;;7.90;99.90;;;;;;4965782;28;19914;-68
2024/01/23 09:39:33;;;;;;;;;;;7.90;99.90;;;;;;4960866;28;19964;-68
2024/01/23 09:42:07;;;;;;;;;;;7.90;99.90;;;;;;4962195;28;19925;-70
2024/01/23 09:44:35;;;;;;;;;;;8.00;99.90;;;;;;4963573;28;20369;-68
2024/01/23 09:47:02;;;;;;;;;;;8.00;99.90;;;;;;4961828;28;19918;-67
2024/01/23 09:49:28;;;;;;;;;;;8.00;99.90;;;;;;4964359;28;20440;-67
2024/01/23 09:51:54;;;;;;;;;;;8.00;99.90;;;;;;4983853;28;19928;-68
2024/01/23 09:54:23;;;;;;;;;;;8.00;99.90;;;;;;4969639;28;20304;-68
2024/01/23 09:56:49;;;;;;;;;;;8.10;99.90;;;;;;4967475;28;20333;-68
2024/01/23 09:59:14;;;;;;;;;;;8.10;99.90;;;;;;4965183;28;19921;-68
2024/01/23 10:01:40;;;;;;;;;;;8.10;99.90;;;;;;4962225;28;19914;-67
2024/01/23 10:04:10;;;;;;;;;;;8.10;99.90;;;;;;4964132;28;20003;-69
2024/01/23 10:06:36;;;;;;;;;;;8.10;99.90;;;;;;4977883;28;20078;-68
2024/01/23 10:09:01;;;;;;;;;;;8.10;99.90;;;;;;4982168;28;20337;-68
2024/01/23 10:11:28;;;;;;;;;;;8.10;99.90;;;;;;4960915;28;19918;-68
2024/01/23 10:13:56;;;;;;;;;;;8.10;99.90;;;;;;4963245;28;20459;-68
2024/01/23 10:16:21;;;;;;;;;;;8.20;99.90;;;;;;4973634;28;19910;-67
2024/01/23 10:18:48;;;;;;;;;;;8.20;99.90;;;;;;4984881;28;19914;-68
2024/01/23 10:21:17;;;;;;;;;;;8.20;99.90;;;;;;4999197;28;19913;-68
2024/01/23 10:23:42;;;;;;;;;;;8.20;99.90;;;;;;4987733;28;19914;-68
2024/01/23 10:26:07;;;;;;;;;;;8.10;99.90;;;;;;4982718;28;19921;-68
2024/01/23 10:28:36;;;;;;;;;;;8.20;99.90;;;;;;4985069;28;19961;-68
2024/01/23 10:31:02;;;;;;;;;;;8.20;99.90;;;;;;4982750;28;20031;-68
2024/01/23 10:33:30;;;;;;;;;;;8.30;99.90;;;;;;4976460;28;19981;-68
2024/01/23 10:35:58;;;;;;;;;;;8.30;99.90;;;;;;4983935;28;19921;-68
2024/01/23 10:38:23;;;;;;;;;;;8.30;99.90;;;;;;4974124;28;19929;-68
2024/01/23 10:40:52;;;;;;;;;;;8.30;99.90;;;;;;4963067;28;19918;-68
2024/01/23 10:43:17;;;;;;;;;;;8.30;99.90;;;;;;4963593;28;19918;-68
2024/01/23 10:45:45;;;;;;;;;;;8.40;99.90;;;;;;4968010;28;19918;-67
2024/01/23 10:48:11;;;;;;;;;;;8.40;99.90;;;;;;4970076;28;19980;-68
2024/01/23 10:50:36;;;;;;;;;;;8.30;99.90;;;;;;4964966;28;19914;-68
2024/01/23 10:53:05;;;;;;;;;;;8.40;99.90;;;;;;4965196;28;19914;-68
2024/01/23 10:55:39;;;;;;;;;;;8.40;99.90;;;;;;4964062;28;19914;-68
2024/01/23 10:58:10;;;;;;;;;;;8.50;99.90;;;;;;4969948;28;20182;-67
2024/01/23 11:00:38;;;;;;;;;;;8.50;99.90;;;;;;4964920;28;19914;-68
2024/01/23 11:03:05;;;;;;;;;;;8.50;99.90;;;;;;4965971;28;19914;-68
2024/01/23 11:05:39;;;;;;;;;;;8.50;99.90;;;;;;4969999;28;19928;-68
2024/01/23 11:08:09;;;;;;;;;;;8.50;99.90;;;;;;4971020;28;20036;-68
2024/01/23 11:10:50;;;;;;;;;;;8.60;99.90;;;;;;4968821;28;19924;-68
2024/01/23 11:13:38;;;;;;;;;;;8.70;99.90;;;;;;4972624;28;19906;-68
2024/01/23 11:16:09;;;;;;;;;;;8.70;99.90;;;;;;4982503;28;19917;-67
2024/01/23 11:18:35;;;;;;;;;;;8.60;99.90;;;;;;4986164;28;19945;-68
2024/01/23 11:21:03;;;;;;;;;;;8.70;99.90;;;;;;4988849;28;20084;-68
2024/01/23 11:23:29;;;;;;;;;;;8.70;99.90;;;;;;4984409;28;20012;-67
2024/01/23 11:26:01;;;;;;;;;;;8.60;99.90;;;;;;4971493;28;20035;-68
2024/01/23 11:28:26;;;;;;;;;;;8.70;99.90;;;;;;4987670;28;19940;-68
2024/01/23 11:31:15;;;;;;;;;;;8.60;99.90;;;;;;4982341;28;20365;-68
2024/01/23 11:33:41;;;;;;;;;;;8.70;99.90;;;;;;4967009;28;19921;-68
2024/01/23 11:36:10;;;;;;;;;;;8.70;99.90;;;;;;4976633;28;19914;-68
2024/01/23 11:38:42;;;;;;;;;;;8.70;99.90;;;;;;4977614;28;19972;-68
2024/01/23 11:41:22;;;;;;;;;;;8.60;99.90;;;;;;4982481;28;19918;-68
2024/01/23 11:43:52;;;;;;;;;;;8.60;99.90;;;;;;4969165;28;20399;-68
2024/01/23 11:46:20;;;;;;;;;;;8.60;99.90;;;;;;4987918;28;19921;-68
2024/01/23 11:48:47;;;;;;;;;;;8.60;99.90;;;;;;4979083;28;20431;-68
2024/01/23 11:51:13;;;;;;;;;;;8.70;99.90;;;;;;4986828;28;20008;-68
2024/01/23 11:53:44;;;;;;;;;;;8.70;99.90;;;;;;4982611;28;19922;-68
2024/01/23 11:56:12;;;;;;;;;;;8.80;99.90;;;;;;4983238;28;19914;-67
2024/01/23 11:58:38;;;;;;;;;;;8.80;99.90;;;;;;4970941;28;19914;-68
2024/01/23 12:01:07;;;;;;;;;;;8.80;99.90;;;;;;4971215;28;19925;-68
2024/01/23 12:03:34;;;;;;;;;;;8.70;99.90;;;;;;4978020;28;19918;-67
2024/01/23 12:06:02;;;;;;;;;;;8.70;99.90;;;;;;4970484;28;20288;-68
2024/01/23 12:08:28;;;;;;;;;;;8.70;99.90;;;;;;4982430;28;19925;-68
2024/01/23 12:10:54;;;;;;;;;;;8.80;99.90;;;;;;4970156;28;19918;-68
2024/01/23 12:13:24;;;;;;;;;;;8.80;99.90;;;;;;4969651;28;20304;-68
2024/01/23 12:15:49;;;;;;;;;;;8.90;99.90;;;;;;4965075;28;19922;-67
2024/01/23 12:18:19;;;;;;;;;;;8.90;99.90;;;;;;4968287;28;19977;-68
2024/01/23 12:20:48;;;;;;;;;;;8.90;99.90;;;;;;4966000;28;19914;-68
2024/01/23 12:23:17;;;;;;;;;;;9.00;99.90;;;;;;4970157;28;19918;-68
2024/01/23 12:25:45;;;;;;;;;;;9.00;99.90;;;;;;4969179;28;19989;-68
2024/01/23 12:28:14;;;;;;;;;;;9.00;99.90;;;;;;4973191;28;19910;-68
2024/01/23 12:30:40;;;;;;;;;;;9.10;99.90;;;;;;4965875;28;19914;-68
2024/01/23 12:33:08;;;;;;;;;;;9.20;99.90;;;;;;4967698;28;19922;-68
2024/01/23 12:35:38;;;;;;;;;;;9.20;99.90;;;;;;4968220;28;19918;-68
2024/01/23 12:38:05;;;;;;;;;;;9.30;99.90;;;;;;4967329;28;19918;-68
2024/01/23 12:40:30;;;;;;;;;;;9.30;99.90;;;;;;4968145;28;19951;-68
2024/01/23 12:42:56;;;;;;;;;;;9.30;99.90;;;;;;4971173;28;19948;-68
2024/01/23 12:45:22;;;;;;;;;;;9.20;99.90;;;;;;4974555;23;20377;-67
2024/01/23 12:47:50;;;;;;;;;;;9.20;99.90;;;;;;5003684;28;19913;-68
2024/01/23 12:50:19;;;;;;;;;;;9.20;99.90;;;;;;5002312;28;20352;-68
2024/01/23 12:52:50;;;;;;;;;;;9.30;99.90;;;;;;5000401;28;19917;-67
2024/01/23 12:55:16;;;;;;;;;;;9.20;99.90;;;;;;5001150;28;19916;-68
2024/01/23 12:57:42;;;;;;;;;;;9.20;99.90;;;;;;5006070;28;19925;-68
2024/01/23 13:00:10;;;;;;;;;;;9.20;99.90;;;;;;5016344;28;19921;-68
2024/01/23 13:02:36;;;;;;;;;;;9.20;99.90;;;;;;5005573;28;19960;-68
2024/01/23 13:05:04;;;;;;;;;;;9.20;99.90;;;;;;5003292;28;19929;-68
2024/01/23 13:07:29;;;;;;;;;;;9.30;99.90;;;;;;5002690;28;19916;-68
2024/01/23 13:09:57;;;;;;;;;;;9.30;99.90;;;;;;5004283;28;19905;-68
2024/01/23 13:12:23;;;;;;;;;;;9.20;99.90;;;;;;5004566;28;20671;-68
2024/01/23 13:14:48;;;;;;;;;;;9.20;99.90;;;;;;5003348;28;19917;-68
2024/01/23 13:17:16;;;;;;;;;;;9.10;99.90;;;;;;5001438;28;20070;-68
2024/01/23 13:19:41;;;;;;;;;;;9.20;99.90;;;;;;5001898;28;19909;-68
2024/01/23 13:22:11;;;;;;;;;;;9.40;99.90;;;;;;5006172;28;20376;-68
2024/01/23 13:24:40;;;;;;;;;;;9.50;99.90;;;;;;5005231;28;19913;-68
2024/01/23 13:27:08;;;;;;;;;;;9.50;99.90;;;;;;4999623;28;19921;-68
2024/01/23 13:29:34;;;;;;;;;;;9.50;99.90;;;;;;5005708;28;19917;-70
2024/01/23 13:32:00;;;;;;;;;;;9.50;99.90;;;;;;5003472;28;20027;-68
2024/01/23 13:34:26;;;;;;;;;;;9.40;99.90;;;;;;5001234;28;20116;-68
2024/01/23 13:36:54;;;;;;;;;;;9.30;99.90;;;;;;5003395;28;20020;-68
2024/01/23 13:39:22;;;;;;;;;;;9.30;99.90;;;;;;5001701;28;19948;-68
2024/01/23 13:41:52;;;;;;;;;;;9.30;99.90;;;;;;5004585;28;19913;-68
2024/01/23 13:44:20;;;;;;;;;;;9.30;99.90;;;;;;5018662;28;19925;-68
2024/01/23 13:46:48;;;;;;;;;;;9.30;99.90;;;;;;5006857;28;19914;-68
2024/01/23 13:49:14;;;;;;;;;;;9.20;99.90;;;;;;5006639;28;19988;-68
2024/01/23 13:51:40;;;;;;;;;;;9.10;99.90;;;;;;5013907;28;19913;-68
2024/01/23 13:54:06;;;;;;;;;;;9.00;99.90;;;;;;5002299;28;20310;-68
2024/01/23 13:56:34;;;;;;;;;;;9.00;99.90;;;;;;5002163;28;19921;-68
2024/01/23 13:59:04;;;;;;;;;;;8.90;99.90;;;;;;5003977;28;19914;-68
2024/01/23 14:01:36;;;;;;;;;;;8.90;99.90;;;;;;5000199;28;19924;-68
2024/01/23 14:04:01;;;;;;;;;;;8.90;99.90;;;;;;4997539;28;19972;-68
2024/01/23 14:06:27;;;;;;;;;;;8.90;99.90;;;;;;4997816;28;20236;-68
2024/01/23 14:08:53;;;;;;;;;;;8.90;99.90;;;;;;5005861;28;19922;-68
2024/01/23 14:11:20;;;;;;;;;;;8.90;99.90;;;;;;5001387;28;20012;-68
2024/01/23 14:13:45;;;;;;;;;;;8.90;99.90;;;;;;5001235;28;19918;-68
2024/01/23 14:16:11;;;;;;;;;;;8.90;99.90;;;;;;5002291;28;19916;-68
2024/01/23 14:18:36;;;;;;;;;;;8.90;99.90;;;;;;5003462;28;19925;-68
2024/01/23 14:21:04;;;;;;;;;;;8.90;99.90;;;;;;5002592;28;20004;-68
2024/01/23 14:23:30;;;;;;;;;;;8.80;99.90;;;;;;5003160;28;19952;-68
2024/01/23 14:25:56;;;;;;;;;;;8.80;99.90;;;;;;5003221;28;19914;-68
2024/01/23 14:28:21;;;;;;;;;;;8.80;99.90;;;;;;5002095;28;19906;-68